createdAt,value
2023-01-13T00:02:15.743Z,81.50
2023-01-13T00:04:44.761Z,78.20
2023-01-13T00:07:13.998Z,73.87
2023-01-13T00:09:42.901Z,74.17
2023-01-13T00:12:11.825Z,70.33
2023-01-13T00:15:00.767Z,72.57
2023-01-13T00:17:29.809Z,94.53
2023-01-13T00:19:58.917Z,87.00
2023-01-13T00:22:27.861Z,83.50
2023-01-13T00:24:58.443Z,80.77
2023-01-13T00:27:27.415Z,93.97
2023-01-13T00:29:56.368Z,91.77
2023-01-13T00:32:26.875Z,90.63
2023-01-13T00:34:56.670Z,88.77
2023-01-13T00:37:25.585Z,101.37
2023-01-13T00:39:54.695Z,70.53
2023-01-13T00:42:41.048Z,75.43
2023-01-13T00:45:10.650Z,81.00
2023-01-13T00:47:41.056Z,104.63
2023-01-13T00:50:11.509Z,104.77
2023-01-13T00:52:42.148Z,88.07
2023-01-13T00:55:11.708Z,100.67
2023-01-13T00:57:40.778Z,87.07
2023-01-13T01:00:11.173Z,89.57
2023-01-13T01:02:41.690Z,92.47
2023-01-13T01:05:11.465Z,79.83
2023-01-13T01:07:40.410Z,80.93
2023-01-13T01:10:10.403Z,84.17
2023-01-13T01:12:39.375Z,77.53
2023-01-13T01:15:10.226Z,75.13
2023-01-13T01:17:40.838Z,79.87
2023-01-13T01:20:11.224Z,73.67
2023-01-13T01:22:40.322Z,72.83
2023-01-13T01:25:10.331Z,74.87
2023-01-13T01:27:39.491Z,63.93
2023-01-13T01:30:09.949Z,63.40
2023-01-13T01:32:38.916Z,65.07
2023-01-13T01:35:10.137Z,62.43
2023-01-13T01:37:39.386Z,66.43
2023-01-13T01:40:09.162Z,76.70
2023-01-13T01:42:55.378Z,69.93
2023-01-13T01:45:42.934Z,62.93
2023-01-13T01:48:13.150Z,59.00
2023-01-13T01:50:43.711Z,60.57
2023-01-13T01:53:17.536Z,74.17
2023-01-13T01:55:47.147Z,58.67
2023-01-13T01:58:21.267Z,58.40
2023-01-13T02:00:50.415Z,61.50
2023-01-13T02:03:19.930Z,60.10
2023-01-13T02:05:50.449Z,59.17
2023-01-13T02:08:20.071Z,58.23
2023-01-13T02:10:55.063Z,59.70
2023-01-13T02:13:23.646Z,67.67
2023-01-13T02:15:59.140Z,109.67
2023-01-13T02:18:46.668Z,54.83
2023-01-13T02:21:48.101Z,62.37
2023-01-13T02:24:53.286Z,56.07
2023-01-13T02:27:57.704Z,75.17
2023-01-13T02:30:52.889Z,72.77
2023-01-13T02:33:35.865Z,72.67
2023-01-13T02:36:13.000Z,97.90
2023-01-13T02:38:50.263Z,90.33
2023-01-13T02:41:45.099Z,107.93
2023-01-13T02:44:16.901Z,109.07
2023-01-13T02:46:55.280Z,113.40
2023-01-13T02:49:31.058Z,111.47
2023-01-13T02:52:06.726Z,126.27
2023-01-13T02:54:39.660Z,111.20
2023-01-13T02:57:11.443Z,111.30
2023-01-13T02:59:42.245Z,84.07
2023-01-13T03:02:17.915Z,108.70
2023-01-13T03:04:50.290Z,92.03
2023-01-13T03:07:59.435Z,85.47
2023-01-13T03:10:56.352Z,79.57
2023-01-13T03:13:47.755Z,71.30
2023-01-13T03:16:25.115Z,66.07
2023-01-13T03:19:08.274Z,71.57
2023-01-13T03:21:42.575Z,90.33
2023-01-13T03:24:16.246Z,106.80
2023-01-13T03:26:49.866Z,111.57
2023-01-13T03:29:22.977Z,134.23
2023-01-13T03:31:59.502Z,116.30
2023-01-13T03:34:33.385Z,106.90
2023-01-13T03:37:06.564Z,138.97
2023-01-13T03:39:40.903Z,123.77
2023-01-13T03:42:13.421Z,98.77
2023-01-13T03:44:46.812Z,110.03
2023-01-13T03:47:20.685Z,107.37
2023-01-13T03:49:56.260Z,116.77
2023-01-13T03:52:29.741Z,117.53
2023-01-13T03:55:03.142Z,114.17
2023-01-13T03:57:36.246Z,153.57
2023-01-13T04:00:09.682Z,131.10
2023-01-13T04:02:51.760Z,95.60
2023-01-13T04:05:45.400Z,101.90
2023-01-13T04:08:21.386Z,134.53
2023-01-13T04:10:57.368Z,118.27
2023-01-13T04:13:30.390Z,145.70
2023-01-13T04:16:00.966Z,115.07
2023-01-13T04:18:31.876Z,135.17
2023-01-13T04:21:03.372Z,139.23
2023-01-13T04:23:32.993Z,171.00
2023-01-13T04:26:20.787Z,168.30
2023-01-13T04:28:49.810Z,118.07
2023-01-13T04:31:38.311Z,178.27
2023-01-13T04:34:07.347Z,149.30
2023-01-13T04:36:37.931Z,176.70
2023-01-13T04:39:07.010Z,160.93
2023-01-13T04:41:49.599Z,132.20
2023-01-13T04:44:18.778Z,141.07
2023-01-13T04:46:48.128Z,170.40
2023-01-13T04:49:17.174Z,180.73
2023-01-13T04:51:47.501Z,184.13
2023-01-13T04:54:17.079Z,150.13
2023-01-13T04:56:46.100Z,155.70
2023-01-13T04:59:15.826Z,152.20
2023-01-13T05:01:44.952Z,176.77
2023-01-13T05:04:15.657Z,133.20
2023-01-13T05:07:04.935Z,153.87
2023-01-13T05:09:33.846Z,138.60
2023-01-13T05:12:20.353Z,129.00
2023-01-13T05:15:06.557Z,163.43
2023-01-13T05:17:54.301Z,135.37
2023-01-13T05:20:23.281Z,171.23
2023-01-13T05:23:11.483Z,140.40
2023-01-13T05:25:44.605Z,136.50
2023-01-13T05:28:13.764Z,134.00
2023-01-13T05:30:44.084Z,157.57
2023-01-13T05:33:14.384Z,141.77
2023-01-13T05:35:45.115Z,151.77
2023-01-13T05:38:34.087Z,138.93
2023-01-13T05:41:20.121Z,140.17
2023-01-13T05:43:49.245Z,143.37
2023-01-13T05:46:18.294Z,117.77
2023-01-13T05:48:48.324Z,130.13
2023-01-13T05:51:17.443Z,138.00
2023-01-13T05:53:47.771Z,120.77
2023-01-13T05:56:18.210Z,125.63
2023-01-13T05:58:47.202Z,124.50
2023-01-13T06:01:16.181Z,108.23
2023-01-13T06:03:45.067Z,106.30
2023-01-13T06:06:14.139Z,107.53
2023-01-13T06:08:43.077Z,96.20
2023-01-13T06:11:13.493Z,94.50
2023-01-13T06:13:42.606Z,96.27
2023-01-13T06:16:11.877Z,86.57
2023-01-13T06:18:40.908Z,84.97
2023-01-13T06:21:10.051Z,85.07
2023-01-13T06:23:39.178Z,87.10
2023-01-13T06:26:15.784Z,92.70
2023-01-13T06:28:44.860Z,79.20
2023-01-13T06:31:14.014Z,76.57
2023-01-13T06:33:47.094Z,78.13
2023-01-13T06:36:22.411Z,81.90
2023-01-13T06:38:54.937Z,78.53
2023-01-13T06:41:39.629Z,81.10
2023-01-13T06:44:09.023Z,72.67
2023-01-13T06:46:38.322Z,72.87
2023-01-13T06:49:07.474Z,74.17
2023-01-13T06:51:36.774Z,74.33
2023-01-13T06:54:06.328Z,77.73
2023-01-13T06:56:36.959Z,70.13
2023-01-13T06:59:06.114Z,82.17
2023-01-13T07:01:35.339Z,80.50
2023-01-13T07:04:04.459Z,73.10
2023-01-13T07:06:33.469Z,77.03
2023-01-13T07:09:03.054Z,78.30
2023-01-13T07:11:33.227Z,75.77
2023-01-13T07:14:21.836Z,75.37
2023-01-13T07:16:50.964Z,73.00
2023-01-13T07:19:24.101Z,78.63
2023-01-13T07:21:53.731Z,72.17
2023-01-13T07:24:23.971Z,73.23
2023-01-13T07:26:53.691Z,73.70
2023-01-13T07:29:24.208Z,80.07
2023-01-13T07:31:53.192Z,73.53
2023-01-13T07:34:22.164Z,78.47
2023-01-13T07:36:51.165Z,71.83
2023-01-13T07:39:20.322Z,70.43
2023-01-13T07:42:06.575Z,81.67
2023-01-13T07:44:37.067Z,73.53
2023-01-13T07:47:06.289Z,66.40
2023-01-13T07:49:35.217Z,69.40
2023-01-13T07:52:04.326Z,64.63
2023-01-13T07:54:40.561Z,68.83
2023-01-13T07:57:10.319Z,64.43
2023-01-13T07:59:40.986Z,67.60
2023-01-13T08:02:13.295Z,64.73
2023-01-13T08:04:42.506Z,61.13
2023-01-13T08:07:11.442Z,60.23
2023-01-13T08:09:40.339Z,68.93
2023-01-13T08:12:27.065Z,64.80
2023-01-13T08:14:57.679Z,57.80
2023-01-13T08:17:26.939Z,59.00
2023-01-13T08:19:55.906Z,62.70
2023-01-13T08:22:24.799Z,62.80
2023-01-13T08:24:53.868Z,68.33
2023-01-13T08:27:22.760Z,64.77
2023-01-13T08:29:51.633Z,67.03
2023-01-13T08:32:21.975Z,79.20
2023-01-13T08:34:51.059Z,104.53
2023-01-13T08:37:20.067Z,85.10
2023-01-13T08:39:49.213Z,96.03
2023-01-13T08:42:18.241Z,66.23
2023-01-13T08:44:47.160Z,79.30
2023-01-13T08:47:16.279Z,69.07
2023-01-13T08:49:46.767Z,68.47
2023-01-13T08:52:15.925Z,65.97
2023-01-13T08:54:45.121Z,67.83
2023-01-13T08:57:15.420Z,60.83
2023-01-13T08:59:44.727Z,57.50
2023-01-13T09:02:15.289Z,59.93
2023-01-13T09:04:46.225Z,76.73
2023-01-13T09:07:15.740Z,72.27
2023-01-13T09:09:45.378Z,61.83
2023-01-13T09:12:33.428Z,54.10
2023-01-13T09:15:02.742Z,93.10
2023-01-13T09:17:31.705Z,60.27
2023-01-13T09:20:02.041Z,81.40
2023-01-13T09:22:31.949Z,62.20
2023-01-13T09:25:00.949Z,57.80
2023-01-13T09:27:29.905Z,53.57
2023-01-13T09:29:58.952Z,51.50
2023-01-13T09:32:27.935Z,52.57
2023-01-13T09:35:01.852Z,50.00
2023-01-13T09:37:35.436Z,47.97
2023-01-13T09:40:05.977Z,49.07
2023-01-13T09:43:02.243Z,47.57
2023-01-13T09:45:34.659Z,46.80
2023-01-13T09:48:12.774Z,47.70
2023-01-13T09:51:00.234Z,45.03
2023-01-13T09:53:33.808Z,46.77
2023-01-13T09:56:03.085Z,44.03
2023-01-13T09:58:32.092Z,33.10
2023-01-13T10:01:15.444Z,30.30
2023-01-13T10:03:44.634Z,36.33
2023-01-13T10:06:18.654Z,49.93
2023-01-13T10:08:50.519Z,35.07
2023-01-13T10:11:38.787Z,42.73
2023-01-13T10:14:17.364Z,54.27
2023-01-13T10:16:51.404Z,59.63
2023-01-13T10:19:24.299Z,55.23
2023-01-13T10:22:12.543Z,45.30
2023-01-13T10:25:03.833Z,62.27
2023-01-13T10:27:36.211Z,125.07
2023-01-13T10:30:19.838Z,112.90
2023-01-13T10:32:54.121Z,55.37
2023-01-13T10:35:53.914Z,48.00
2023-01-13T10:38:25.333Z,44.63
2023-01-13T10:40:57.930Z,50.63
2023-01-13T10:43:28.259Z,48.50
2023-01-13T10:46:07.050Z,53.73
2023-01-13T10:48:40.623Z,48.87
2023-01-13T10:51:25.260Z,57.67
2023-01-13T10:53:57.532Z,50.37
2023-01-13T10:56:30.213Z,54.97
2023-01-13T10:59:15.878Z,56.63
2023-01-13T11:01:54.975Z,83.63
2023-01-13T11:04:30.666Z,50.50
2023-01-13T11:07:00.712Z,49.73
2023-01-13T11:09:48.465Z,51.80
2023-01-13T11:12:34.462Z,49.47
2023-01-13T11:15:06.282Z,51.93
2023-01-13T11:17:42.377Z,49.93
2023-01-13T11:20:20.741Z,47.33
2023-01-13T11:22:53.139Z,48.10
2023-01-13T11:25:25.638Z,51.90
2023-01-13T11:28:01.211Z,57.90
2023-01-13T11:30:36.956Z,54.03
2023-01-13T11:33:28.573Z,51.40
2023-01-13T11:36:06.813Z,52.07
2023-01-13T11:38:43.759Z,57.77
2023-01-13T11:41:22.254Z,53.33
2023-01-13T11:44:18.501Z,62.63
2023-01-13T11:46:50.368Z,53.17
2023-01-13T11:49:26.353Z,52.67
2023-01-13T11:52:02.202Z,53.30
2023-01-13T11:54:55.107Z,52.63
2023-01-13T11:57:48.687Z,61.77
2023-01-13T12:00:32.821Z,52.23
2023-01-13T12:03:26.090Z,50.60
2023-01-13T12:06:23.869Z,49.60
2023-01-13T12:09:12.104Z,49.50
2023-01-13T12:12:10.790Z,52.70
2023-01-13T12:15:08.160Z,49.97
2023-01-13T12:17:51.368Z,72.37
2023-01-13T12:20:31.219Z,58.03
2023-01-13T12:23:05.075Z,51.93
2023-01-13T12:25:56.080Z,61.20
2023-01-13T12:28:28.210Z,52.33
2023-01-13T12:31:01.037Z,48.57
2023-01-13T12:33:45.973Z,50.40
2023-01-13T12:36:23.927Z,54.73
2023-01-13T12:38:58.287Z,53.87
2023-01-13T12:42:02.276Z,52.93
2023-01-13T12:44:31.162Z,44.10
2023-01-13T12:47:01.158Z,41.30
2023-01-13T12:49:32.952Z,38.17
2023-01-13T12:52:31.724Z,32.67
2023-01-13T12:55:18.626Z,29.60
2023-01-13T12:57:59.057Z,30.73
2023-01-13T13:00:38.479Z,48.00
2023-01-13T13:03:33.091Z,41.37
2023-01-13T13:06:11.457Z,56.53
2023-01-13T13:08:48.405Z,47.40
2023-01-13T13:11:54.841Z,39.87
2023-01-13T13:15:05.694Z,40.47
2023-01-13T13:18:02.682Z,43.63
2023-01-13T13:21:05.231Z,58.37
2023-01-13T13:23:48.362Z,48.63
2023-01-13T13:26:31.128Z,46.60
2023-01-13T13:29:27.958Z,38.07
2023-01-13T13:32:47.658Z,45.53
2023-01-13T13:35:41.387Z,63.70
2023-01-13T13:38:39.060Z,58.63
2023-01-13T13:41:30.767Z,217.23
2023-01-13T13:44:21.203Z,74.03
2023-01-13T13:46:51.122Z,47.00
2023-01-13T13:49:21.879Z,45.23
2023-01-13T13:52:00.453Z,31.07
2023-01-13T13:54:29.897Z,47.00
2023-01-13T13:57:01.273Z,54.17
2023-01-13T13:59:31.478Z,62.37
2023-01-13T14:02:04.168Z,59.57
2023-01-13T14:04:36.589Z,61.63
2023-01-13T14:07:20.786Z,53.93
2023-01-13T14:09:53.892Z,44.50
2023-01-13T14:12:27.308Z,39.73
2023-01-13T14:14:57.687Z,48.67
2023-01-13T14:17:28.742Z,33.03
2023-01-13T14:20:02.682Z,36.30
2023-01-13T14:22:31.759Z,40.57
2023-01-13T14:25:02.182Z,58.60
2023-01-13T14:27:38.078Z,52.77
2023-01-13T14:30:13.045Z,94.23
2023-01-13T14:32:42.512Z,79.60
2023-01-13T14:35:17.186Z,58.53
2023-01-13T14:37:49.145Z,116.77
2023-01-13T14:40:47.841Z,93.70
2023-01-13T14:43:24.267Z,76.07
2023-01-13T14:46:12.266Z,116.67
2023-01-13T14:48:43.514Z,114.40
2023-01-13T14:51:14.314Z,71.07
2023-01-13T14:53:47.133Z,67.77
2023-01-13T14:56:38.039Z,88.10
2023-01-13T14:59:42.788Z,114.83
2023-01-13T15:02:40.708Z,86.03
2023-01-13T15:05:49.639Z,71.10
2023-01-13T15:08:38.940Z,33.77
2023-01-13T15:11:19.724Z,37.73
2023-01-13T15:13:54.560Z,48.87
2023-01-13T15:16:27.144Z,57.97
2023-01-13T15:18:56.983Z,55.23
2023-01-13T15:21:46.031Z,76.93
2023-01-13T15:24:15.415Z,87.23
2023-01-13T15:26:45.752Z,98.47
2023-01-13T15:29:16.431Z,71.40
2023-01-13T15:31:47.042Z,55.00
2023-01-13T15:34:16.284Z,64.63
2023-01-13T15:36:46.739Z,70.47
2023-01-13T15:39:16.735Z,63.37
2023-01-13T15:42:03.001Z,60.20
2023-01-13T15:44:49.501Z,77.03
2023-01-13T15:47:29.350Z,65.63
2023-01-13T15:49:58.613Z,46.70
2023-01-13T15:52:29.422Z,52.30
2023-01-13T15:54:58.607Z,54.00
2023-01-13T15:57:29.591Z,64.37
2023-01-13T16:00:02.524Z,53.83
2023-01-13T16:02:36.932Z,70.77
2023-01-13T16:05:07.371Z,74.63
2023-01-13T16:07:36.637Z,83.33
2023-01-13T16:10:06.466Z,88.83
2023-01-13T16:12:37.130Z,71.73
2023-01-13T16:15:07.233Z,74.10
2023-01-13T16:17:38.192Z,72.50
2023-01-13T16:20:13.486Z,65.50
2023-01-13T16:22:42.946Z,67.53
2023-01-13T16:25:19.225Z,75.13
2023-01-13T16:27:49.286Z,97.97
2023-01-13T16:30:26.997Z,95.00
2023-01-13T16:32:59.286Z,88.83
2023-01-13T16:35:29.421Z,129.23
2023-01-13T16:38:00.666Z,119.37
2023-01-13T16:40:33.583Z,60.80
2023-01-13T16:43:05.079Z,75.03
2023-01-13T16:45:35.063Z,132.53
2023-01-13T16:48:05.885Z,134.10
2023-01-13T16:50:39.768Z,137.20
2023-01-13T16:53:10.263Z,135.47
2023-01-13T16:55:40.217Z,158.33
2023-01-13T16:58:18.422Z,182.53
2023-01-13T17:00:48.253Z,166.77
2023-01-13T17:03:18.940Z,130.83
2023-01-13T17:05:48.956Z,125.60
2023-01-13T17:08:19.286Z,91.40
2023-01-13T17:10:49.309Z,104.70
2023-01-13T17:13:19.935Z,78.13
2023-01-13T17:15:49.123Z,80.23
2023-01-13T17:18:19.539Z,63.70
2023-01-13T17:20:48.675Z,55.13
2023-01-13T17:23:17.851Z,56.20
2023-01-13T17:25:47.067Z,51.50
2023-01-13T17:28:16.333Z,52.00
2023-01-13T17:30:45.674Z,50.80
2023-01-13T17:33:14.759Z,60.17
2023-01-13T17:35:46.584Z,49.20
2023-01-13T17:38:34.285Z,73.97
2023-01-13T17:41:05.223Z,51.30
2023-01-13T17:43:34.404Z,57.00
2023-01-13T17:46:03.602Z,41.33
2023-01-13T17:48:32.813Z,127.07
2023-01-13T17:51:07.017Z,103.73
2023-01-13T17:53:36.339Z,98.27
2023-01-13T17:56:05.386Z,83.60
2023-01-13T17:58:34.423Z,90.27
2023-01-13T18:01:08.719Z,98.27
2023-01-13T18:03:38.602Z,101.70
2023-01-13T18:06:12.376Z,97.27
2023-01-13T18:08:41.523Z,132.70
2023-01-13T18:11:10.712Z,70.43
2023-01-13T18:13:41.518Z,74.20
2023-01-13T18:16:12.205Z,79.77
2023-01-13T18:18:43.262Z,77.93
2023-01-13T18:21:46.166Z,78.60
2023-01-13T18:24:34.615Z,89.63
2023-01-13T18:27:24.107Z,84.53
2023-01-13T18:29:54.754Z,79.60
2023-01-13T18:32:26.522Z,80.43
2023-01-13T18:35:05.109Z,71.97
2023-01-13T18:37:38.892Z,77.27
2023-01-13T18:40:10.263Z,89.20
2023-01-13T18:42:59.205Z,79.07
2023-01-13T18:45:30.568Z,83.00
2023-01-13T18:48:01.463Z,77.80
2023-01-13T18:50:31.912Z,73.90
2023-01-13T18:53:03.374Z,81.63
2023-01-13T18:55:50.903Z,86.93
2023-01-13T18:58:20.734Z,69.93
2023-01-13T19:00:50.168Z,68.07
2023-01-13T19:03:29.869Z,67.33
2023-01-13T19:06:04.969Z,66.47
2023-01-13T19:08:35.799Z,66.27
2023-01-13T19:11:25.869Z,79.50
2023-01-13T19:13:55.579Z,81.57
2023-01-13T19:16:24.628Z,75.70
2023-01-13T19:18:53.604Z,56.23
2023-01-13T19:21:23.302Z,74.10
2023-01-13T19:24:12.813Z,89.60
2023-01-13T19:26:41.795Z,81.63
2023-01-13T19:29:10.794Z,65.83
2023-01-13T19:31:39.801Z,67.93
2023-01-13T19:34:08.845Z,67.13
2023-01-13T19:36:38.020Z,62.57
2023-01-13T19:39:08.356Z,61.83
2023-01-13T19:41:56.274Z,62.37
2023-01-13T19:44:42.698Z,55.83
2023-01-13T19:47:11.624Z,57.50
2023-01-13T19:49:40.637Z,66.03
2023-01-13T19:52:09.613Z,66.67
2023-01-13T19:54:38.841Z,77.13
2023-01-13T19:57:09.368Z,103.43
2023-01-13T19:59:41.215Z,78.73
2023-01-13T20:02:16.326Z,68.13
2023-01-13T20:04:46.141Z,60.50
2023-01-13T20:07:15.448Z,63.03
2023-01-13T20:09:45.628Z,66.37
2023-01-13T20:12:16.584Z,72.10
2023-01-13T20:14:47.750Z,69.10
2023-01-13T20:17:18.860Z,79.20
2023-01-13T20:19:48.366Z,88.30
2023-01-13T20:22:17.634Z,89.47
2023-01-13T20:24:46.559Z,80.27
2023-01-13T20:27:17.169Z,70.07
2023-01-13T20:29:46.197Z,65.00
2023-01-13T20:32:15.302Z,66.57
2023-01-13T20:34:44.570Z,62.30
2023-01-13T20:37:13.709Z,103.07
2023-01-13T20:39:44.211Z,108.03
2023-01-13T20:42:30.478Z,111.70
2023-01-13T20:45:02.087Z,76.53
2023-01-13T20:47:31.683Z,82.57
2023-01-13T20:50:00.669Z,57.67
2023-01-13T20:52:30.204Z,56.03
2023-01-13T20:54:59.429Z,52.90
2023-01-13T20:57:28.315Z,58.70
2023-01-13T20:59:57.224Z,58.93
2023-01-13T21:02:28.385Z,49.97
2023-01-13T21:04:58.276Z,65.03
2023-01-13T21:07:28.471Z,68.63
2023-01-13T21:09:58.213Z,74.20
2023-01-13T21:12:44.754Z,66.10
2023-01-13T21:15:21.900Z,62.83
2023-01-13T21:18:10.955Z,70.50
2023-01-13T21:20:40.703Z,59.93
2023-01-13T21:23:12.156Z,58.07
2023-01-13T21:25:41.401Z,64.73
2023-01-13T21:28:12.010Z,61.43
2023-01-13T21:30:41.256Z,74.13
2023-01-13T21:33:15.219Z,67.10
2023-01-13T21:35:44.568Z,67.07
2023-01-13T21:38:13.996Z,72.03
2023-01-13T21:40:43.051Z,88.57
2023-01-13T21:43:31.739Z,81.70
2023-01-13T21:46:18.285Z,73.53
2023-01-13T21:48:49.310Z,74.03
2023-01-13T21:51:18.512Z,73.47
2023-01-13T21:53:47.672Z,70.57
2023-01-13T21:56:16.829Z,56.43
2023-01-13T21:58:45.972Z,63.97
2023-01-13T22:01:15.194Z,60.33
2023-01-13T22:04:01.954Z,58.50
2023-01-13T22:06:32.647Z,55.43
2023-01-13T22:09:01.713Z,62.17
2023-01-13T22:11:31.887Z,67.83
2023-01-13T22:14:07.367Z,66.77
2023-01-13T22:16:39.576Z,90.20
2023-01-13T22:19:10.143Z,80.33
2023-01-13T22:21:41.327Z,70.43
2023-01-13T22:24:11.115Z,75.53
2023-01-13T22:26:40.129Z,66.83
2023-01-13T22:29:09.182Z,66.63
2023-01-13T22:31:39.488Z,73.23
2023-01-13T22:34:08.591Z,62.90
2023-01-13T22:36:37.812Z,66.53
2023-01-13T22:39:08.762Z,65.00
2023-01-13T22:41:37.847Z,62.90
2023-01-13T22:44:07.090Z,70.47
2023-01-13T22:46:36.296Z,64.60
2023-01-13T22:49:05.400Z,65.20
2023-01-13T22:51:34.485Z,73.53
2023-01-13T22:54:03.421Z,71.23
2023-01-13T22:56:34.170Z,68.83
2023-01-13T22:59:04.614Z,62.93
2023-01-13T23:01:35.815Z,63.03
2023-01-13T23:04:05.893Z,71.57
2023-01-13T23:06:36.233Z,65.97
2023-01-13T23:09:05.520Z,69.33
2023-01-13T23:11:35.881Z,60.53
2023-01-13T23:14:07.719Z,62.03
2023-01-13T23:16:38.733Z,67.03
2023-01-13T23:19:08.795Z,69.97
2023-01-13T23:21:40.140Z,69.90
2023-01-13T23:24:10.091Z,71.97
2023-01-13T23:26:40.862Z,87.73
2023-01-13T23:29:13.380Z,91.73
2023-01-13T23:31:43.316Z,98.40
2023-01-13T23:34:12.437Z,98.47
2023-01-13T23:36:43.506Z,101.77
2023-01-13T23:39:12.661Z,111.37
2023-01-13T23:41:42.941Z,89.23
2023-01-13T23:44:12.011Z,81.60
2023-01-13T23:46:41.239Z,81.43
2023-01-13T23:49:10.244Z,84.27
2023-01-13T23:51:39.374Z,80.77
2023-01-13T23:54:08.285Z,82.23
2023-01-13T23:56:39.561Z,82.90
2023-01-13T23:59:10.377Z,90.70
